sensor_id;sensor_type;location;lat;lon;timestamp;temperature;humidity
20489;DHT22;10403;54.092;12.122;2023-12-14T00:01:18;4.70;99.90
20489;DHT22;10403;54.092;12.122;2023-12-14T00:03:45;4.60;99.90
20489;DHT22;10403;54.092;12.122;2023-12-14T00:06:13;4.60;99.90
20489;DHT22;10403;54.092;12.122;2023-12-14T00:08:41;4.60;99.90
20489;DHT22;10403;54.092;12.122;2023-12-14T00:11:10;4.60;99.90
20489;DHT22;10403;54.092;12.122;2023-12-14T00:13:39;4.60;99.90
20489;DHT22;10403;54.092;12.122;2023-12-14T00:16:07;4.50;99.90
20489;DHT22;10403;54.092;12.122;2023-12-14T00:18:35;4.50;99.90
20489;DHT22;10403;54.092;12.122;2023-12-14T00:21:03;4.50;99.90
20489;DHT22;10403;54.092;12.122;2023-12-14T00:23:30;4.60;99.90
20489;DHT22;10403;54.092;12.122;2023-12-14T00:25:58;4.50;99.90
20489;DHT22;10403;54.092;12.122;2023-12-14T00:28:25;4.50;99.90
20489;DHT22;10403;54.092;12.122;2023-12-14T00:30:56;4.50;99.90
20489;DHT22;10403;54.092;12.122;2023-12-14T00:33:24;4.50;99.90
20489;DHT22;10403;54.092;12.122;2023-12-14T00:35:51;4.50;99.90
20489;DHT22;10403;54.092;12.122;2023-12-14T00:38:18;4.60;99.90
20489;DHT22;10403;54.092;12.122;2023-12-14T00:40:45;4.60;99.90
20489;DHT22;10403;54.092;12.122;2023-12-14T00:43:12;4.60;99.90
20489;DHT22;10403;54.092;12.122;2023-12-14T00:45:39;4.60;99.90
20489;DHT22;10403;54.092;12.122;2023-12-14T00:48:08;4.60;99.90
20489;DHT22;10403;54.092;12.122;2023-12-14T00:50:35;4.60;99.90
20489;DHT22;10403;54.092;12.122;2023-12-14T00:53:02;4.60;99.90
20489;DHT22;10403;54.092;12.122;2023-12-14T00:55:30;4.60;99.90
20489;DHT22;10403;54.092;12.122;2023-12-14T00:57:57;4.60;99.90
20489;DHT22;10403;54.092;12.122;2023-12-14T01:00:24;4.60;99.90
20489;DHT22;10403;54.092;12.122;2023-12-14T01:02:51;4.60;99.90
20489;DHT22;10403;54.092;12.122;2023-12-14T01:05:18;4.60;99.90
20489;DHT22;10403;54.092;12.122;2023-12-14T01:07:46;4.60;99.90
20489;DHT22;10403;54.092;12.122;2023-12-14T01:10:13;4.50;99.90
20489;DHT22;10403;54.092;12.122;2023-12-14T01:12:40;4.50;99.90
20489;DHT22;10403;54.092;12.122;2023-12-14T01:15:08;4.50;99.90
20489;DHT22;10403;54.092;12.122;2023-12-14T01:17:35;4.50;99.90
20489;DHT22;10403;54.092;12.122;2023-12-14T01:20:08;4.50;99.90
20489;DHT22;10403;54.092;12.122;2023-12-14T01:22:36;4.50;99.90
20489;DHT22;10403;54.092;12.122;2023-12-14T01:25:04;4.50;99.90
20489;DHT22;10403;54.092;12.122;2023-12-14T01:27:31;4.50;99.90
20489;DHT22;10403;54.092;12.122;2023-12-14T01:29:58;4.50;99.90
20489;DHT22;10403;54.092;12.122;2023-12-14T01:32:26;4.50;99.90
20489;DHT22;10403;54.092;12.122;2023-12-14T01:34:53;4.50;99.90
20489;DHT22;10403;54.092;12.122;2023-12-14T01:37:20;4.60;99.90
20489;DHT22;10403;54.092;12.122;2023-12-14T01:39:47;4.50;99.90
20489;DHT22;10403;54.092;12.122;2023-12-14T01:42:14;4.60;99.90
20489;DHT22;10403;54.092;12.122;2023-12-14T01:44:41;4.50;99.90
20489;DHT22;10403;54.092;12.122;2023-12-14T01:47:09;4.50;99.90
20489;DHT22;10403;54.092;12.122;2023-12-14T01:49:36;4.60;99.90
20489;DHT22;10403;54.092;12.122;2023-12-14T01:52:04;4.50;99.90
20489;DHT22;10403;54.092;12.122;2023-12-14T01:54:32;4.50;99.90
20489;DHT22;10403;54.092;12.122;2023-12-14T01:57:00;4.50;99.90
20489;DHT22;10403;54.092;12.122;2023-12-14T01:59:27;4.50;99.90
20489;DHT22;10403;54.092;12.122;2023-12-14T02:01:55;4.50;99.90
20489;DHT22;10403;54.092;12.122;2023-12-14T02:04:24;4.50;99.90
20489;DHT22;10403;54.092;12.122;2023-12-14T02:06:52;4.50;99.90
20489;DHT22;10403;54.092;12.122;2023-12-14T02:09:19;4.60;99.90
20489;DHT22;10403;54.092;12.122;2023-12-14T02:11:46;4.60;99.90
20489;DHT22;10403;54.092;12.122;2023-12-14T02:14:13;4.60;99.90
20489;DHT22;10403;54.092;12.122;2023-12-14T02:16:40;4.60;99.90
20489;DHT22;10403;54.092;12.122;2023-12-14T02:19:08;4.60;99.90
20489;DHT22;10403;54.092;12.122;2023-12-14T02:21:35;4.60;99.90
20489;DHT22;10403;54.092;12.122;2023-12-14T02:24:02;4.60;99.90
20489;DHT22;10403;54.092;12.122;2023-12-14T02:26:29;4.60;99.90
20489;DHT22;10403;54.092;12.122;2023-12-14T02:28:57;4.60;99.90
20489;DHT22;10403;54.092;12.122;2023-12-14T02:31:24;4.60;99.90
20489;DHT22;10403;54.092;12.122;2023-12-14T02:33:51;4.60;99.90
20489;DHT22;10403;54.092;12.122;2023-12-14T02:36:18;4.60;99.90
20489;DHT22;10403;54.092;12.122;2023-12-14T02:38:45;4.60;99.90
20489;DHT22;10403;54.092;12.122;2023-12-14T02:41:12;4.60;99.90
20489;DHT22;10403;54.092;12.122;2023-12-14T02:43:40;4.60;99.90
20489;DHT22;10403;54.092;12.122;2023-12-14T02:46:08;4.70;99.90
20489;DHT22;10403;54.092;12.122;2023-12-14T02:48:35;4.70;99.90
20489;DHT22;10403;54.092;12.122;2023-12-14T02:51:03;4.70;99.90
20489;DHT22;10403;54.092;12.122;2023-12-14T02:53:30;4.70;99.90
20489;DHT22;10403;54.092;12.122;2023-12-14T02:56:01;4.70;99.90
20489;DHT22;10403;54.092;12.122;2023-12-14T02:58:29;4.70;99.90
20489;DHT22;10403;54.092;12.122;2023-12-14T03:00:56;4.70;99.90
20489;DHT22;10403;54.092;12.122;2023-12-14T03:03:23;4.60;99.90
20489;DHT22;10403;54.092;12.122;2023-12-14T03:05:50;4.70;99.90
20489;DHT22;10403;54.092;12.122;2023-12-14T03:08:17;4.70;99.90
20489;DHT22;10403;54.092;12.122;2023-12-14T03:10:44;4.70;99.90
20489;DHT22;10403;54.092;12.122;2023-12-14T03:13:12;4.70;99.90
20489;DHT22;10403;54.092;12.122;2023-12-14T03:15:39;4.70;99.90
20489;DHT22;10403;54.092;12.122;2023-12-14T03:18:09;4.70;99.90
20489;DHT22;10403;54.092;12.122;2023-12-14T03:20:39;4.70;99.90
20489;DHT22;10403;54.092;12.122;2023-12-14T03:23:06;4.70;99.90
20489;DHT22;10403;54.092;12.122;2023-12-14T03:25:33;4.70;99.90
20489;DHT22;10403;54.092;12.122;2023-12-14T03:28:00;4.70;99.90
20489;DHT22;10403;54.092;12.122;2023-12-14T03:30:27;4.70;99.90
20489;DHT22;10403;54.092;12.122;2023-12-14T03:32:54;4.70;99.90
20489;DHT22;10403;54.092;12.122;2023-12-14T03:35:21;4.70;99.90
20489;DHT22;10403;54.092;12.122;2023-12-14T03:37:49;4.70;99.90
20489;DHT22;10403;54.092;12.122;2023-12-14T03:40:16;4.70;99.90
20489;DHT22;10403;54.092;12.122;2023-12-14T03:42:43;4.70;99.90
20489;DHT22;10403;54.092;12.122;2023-12-14T03:45:10;4.70;99.90
20489;DHT22;10403;54.092;12.122;2023-12-14T03:47:37;4.70;99.90
20489;DHT22;10403;54.092;12.122;2023-12-14T03:50:05;4.70;99.90
20489;DHT22;10403;54.092;12.122;2023-12-14T03:52:33;4.70;99.90
20489;DHT22;10403;54.092;12.122;2023-12-14T03:55:01;4.70;99.90
20489;DHT22;10403;54.092;12.122;2023-12-14T03:57:28;4.70;99.90
20489;DHT22;10403;54.092;12.122;2023-12-14T03:59:55;4.70;99.90
20489;DHT22;10403;54.092;12.122;2023-12-14T04:02:22;4.60;99.90
20489;DHT22;10403;54.092;12.122;2023-12-14T04:04:49;4.60;99.90
20489;DHT22;10403;54.092;12.122;2023-12-14T04:07:17;4.70;99.90
20489;DHT22;10403;54.092;12.122;2023-12-14T04:09:45;4.60;99.90
20489;DHT22;10403;54.092;12.122;2023-12-14T04:12:12;4.70;99.90
20489;DHT22;10403;54.092;12.122;2023-12-14T04:14:39;4.70;99.90
20489;DHT22;10403;54.092;12.122;2023-12-14T04:17:06;4.70;99.90
20489;DHT22;10403;54.092;12.122;2023-12-14T04:19:34;4.60;99.90
20489;DHT22;10403;54.092;12.122;2023-12-14T04:22:01;4.60;99.90
20489;DHT22;10403;54.092;12.122;2023-12-14T04:24:28;4.70;99.90
20489;DHT22;10403;54.092;12.122;2023-12-14T04:26:57;4.60;99.90
20489;DHT22;10403;54.092;12.122;2023-12-14T04:29:24;4.70;99.90
20489;DHT22;10403;54.092;12.122;2023-12-14T04:31:51;4.70;99.90
20489;DHT22;10403;54.092;12.122;2023-12-14T04:34:20;4.70;99.90
20489;DHT22;10403;54.092;12.122;2023-12-14T04:36:47;4.70;99.90
20489;DHT22;10403;54.092;12.122;2023-12-14T04:39:15;4.70;99.90
20489;DHT22;10403;54.092;12.122;2023-12-14T04:41:43;4.60;99.90
20489;DHT22;10403;54.092;12.122;2023-12-14T04:44:11;4.70;99.90
20489;DHT22;10403;54.092;12.122;2023-12-14T04:46:38;4.70;99.90
20489;DHT22;10403;54.092;12.122;2023-12-14T04:49:06;4.60;99.90
20489;DHT22;10403;54.092;12.122;2023-12-14T04:51:33;4.70;99.90
20489;DHT22;10403;54.092;12.122;2023-12-14T04:54:00;4.70;99.90
20489;DHT22;10403;54.092;12.122;2023-12-14T04:56:27;4.60;99.90
20489;DHT22;10403;54.092;12.122;2023-12-14T04:58:54;4.60;99.90
20489;DHT22;10403;54.092;12.122;2023-12-14T05:01:21;4.60;99.90
20489;DHT22;10403;54.092;12.122;2023-12-14T05:03:49;4.60;99.90
20489;DHT22;10403;54.092;12.122;2023-12-14T05:06:16;4.60;99.90
20489;DHT22;10403;54.092;12.122;2023-12-14T05:08:43;4.60;99.90
20489;DHT22;10403;54.092;12.122;2023-12-14T05:11:12;4.60;99.90
20489;DHT22;10403;54.092;12.122;2023-12-14T05:13:40;4.60;99.90
20489;DHT22;10403;54.092;12.122;2023-12-14T05:16:13;4.60;99.90
20489;DHT22;10403;54.092;12.122;2023-12-14T05:18:41;4.60;99.90
20489;DHT22;10403;54.092;12.122;2023-12-14T05:21:08;4.60;99.90
20489;DHT22;10403;54.092;12.122;2023-12-14T05:23:35;4.60;99.90
20489;DHT22;10403;54.092;12.122;2023-12-14T05:26:03;4.50;99.90
20489;DHT22;10403;54.092;12.122;2023-12-14T05:28:30;4.60;99.90
20489;DHT22;10403;54.092;12.122;2023-12-14T05:30:57;4.60;99.90
20489;DHT22;10403;54.092;12.122;2023-12-14T05:33:25;4.60;99.90
20489;DHT22;10403;54.092;12.122;2023-12-14T05:35:52;4.60;99.90
20489;DHT22;10403;54.092;12.122;2023-12-14T05:38:19;4.60;99.90
20489;DHT22;10403;54.092;12.122;2023-12-14T05:40:46;4.50;99.90
20489;DHT22;10403;54.092;12.122;2023-12-14T05:43:13;4.60;99.90
20489;DHT22;10403;54.092;12.122;2023-12-14T05:45:41;4.60;99.90
20489;DHT22;10403;54.092;12.122;2023-12-14T05:48:08;4.60;99.90
20489;DHT22;10403;54.092;12.122;2023-12-14T05:50:35;4.60;99.90
20489;DHT22;10403;54.092;12.122;2023-12-14T05:53:02;4.60;99.90
20489;DHT22;10403;54.092;12.122;2023-12-14T05:55:29;4.60;99.90
20489;DHT22;10403;54.092;12.122;2023-12-14T05:57:57;4.60;99.90
20489;DHT22;10403;54.092;12.122;2023-12-14T06:00:24;4.50;99.90
20489;DHT22;10403;54.092;12.122;2023-12-14T06:02:51;4.60;99.90
20489;DHT22;10403;54.092;12.122;2023-12-14T06:05:18;4.60;99.90
20489;DHT22;10403;54.092;12.122;2023-12-14T06:07:45;4.60;99.90
20489;DHT22;10403;54.092;12.122;2023-12-14T06:10:13;4.60;99.90
20489;DHT22;10403;54.092;12.122;2023-12-14T06:12:40;4.60;99.90
20489;DHT22;10403;54.092;12.122;2023-12-14T06:15:08;4.60;99.90
20489;DHT22;10403;54.092;12.122;2023-12-14T06:17:36;4.60;99.90
20489;DHT22;10403;54.092;12.122;2023-12-14T06:20:05;4.60;99.90
20489;DHT22;10403;54.092;12.122;2023-12-14T06:22:38;4.60;99.90
20489;DHT22;10403;54.092;12.122;2023-12-14T06:25:06;4.60;99.90
20489;DHT22;10403;54.092;12.122;2023-12-14T06:27:34;4.60;99.90
20489;DHT22;10403;54.092;12.122;2023-12-14T06:30:01;4.60;99.90
20489;DHT22;10403;54.092;12.122;2023-12-14T06:32:29;4.60;99.90
20489;DHT22;10403;54.092;12.122;2023-12-14T06:34:56;4.60;99.90
20489;DHT22;10403;54.092;12.122;2023-12-14T06:37:24;4.50;99.90
20489;DHT22;10403;54.092;12.122;2023-12-14T06:39:51;4.60;99.90
20489;DHT22;10403;54.092;12.122;2023-12-14T06:42:18;4.60;99.90
20489;DHT22;10403;54.092;12.122;2023-12-14T06:44:45;4.60;99.90
20489;DHT22;10403;54.092;12.122;2023-12-14T06:47:12;4.60;99.90
20489;DHT22;10403;54.092;12.122;2023-12-14T06:49:40;4.60;99.90
20489;DHT22;10403;54.092;12.122;2023-12-14T06:52:08;4.50;99.90
20489;DHT22;10403;54.092;12.122;2023-12-14T06:54:36;4.50;99.90
20489;DHT22;10403;54.092;12.122;2023-12-14T06:57:03;4.70;99.90
20489;DHT22;10403;54.092;12.122;2023-12-14T06:59:30;4.50;99.90
20489;DHT22;10403;54.092;12.122;2023-12-14T07:01:57;4.50;99.90
20489;DHT22;10403;54.092;12.122;2023-12-14T07:04:25;4.50;99.90
20489;DHT22;10403;54.092;12.122;2023-12-14T07:06:52;4.50;99.90
20489;DHT22;10403;54.092;12.122;2023-12-14T07:09:20;4.60;99.90
20489;DHT22;10403;54.092;12.122;2023-12-14T07:11:47;4.50;99.90
20489;DHT22;10403;54.092;12.122;2023-12-14T07:14:14;4.50;99.90
20489;DHT22;10403;54.092;12.122;2023-12-14T07:16:42;4.50;99.90
20489;DHT22;10403;54.092;12.122;2023-12-14T07:19:09;4.60;99.90
20489;DHT22;10403;54.092;12.122;2023-12-14T07:21:38;4.60;99.90
20489;DHT22;10403;54.092;12.122;2023-12-14T07:24:05;4.60;99.90
20489;DHT22;10403;54.092;12.122;2023-12-14T07:26:32;4.50;99.90
20489;DHT22;10403;54.092;12.122;2023-12-14T07:29:00;4.50;99.90
20489;DHT22;10403;54.092;12.122;2023-12-14T07:31:27;4.50;99.90
20489;DHT22;10403;54.092;12.122;2023-12-14T07:33:56;4.50;99.90
20489;DHT22;10403;54.092;12.122;2023-12-14T07:36:23;4.50;99.90
20489;DHT22;10403;54.092;12.122;2023-12-14T07:38:50;4.50;99.90
20489;DHT22;10403;54.092;12.122;2023-12-14T07:41:21;4.50;99.90
20489;DHT22;10403;54.092;12.122;2023-12-14T07:43:53;4.50;99.90
20489;DHT22;10403;54.092;12.122;2023-12-14T07:46:20;4.50;99.90
20489;DHT22;10403;54.092;12.122;2023-12-14T07:48:48;4.50;99.90
20489;DHT22;10403;54.092;12.122;2023-12-14T07:51:15;4.50;99.90
20489;DHT22;10403;54.092;12.122;2023-12-14T07:53:42;4.50;99.90
20489;DHT22;10403;54.092;12.122;2023-12-14T07:56:09;4.50;99.90
20489;DHT22;10403;54.092;12.122;2023-12-14T07:58:36;4.40;99.90
20489;DHT22;10403;54.092;12.122;2023-12-14T08:01:04;4.50;99.90
20489;DHT22;10403;54.092;12.122;2023-12-14T08:03:31;4.50;99.90
20489;DHT22;10403;54.092;12.122;2023-12-14T08:05:58;4.50;99.90
20489;DHT22;10403;54.092;12.122;2023-12-14T08:08:26;4.50;99.90
20489;DHT22;10403;54.092;12.122;2023-12-14T08:10:53;4.50;99.90
20489;DHT22;10403;54.092;12.122;2023-12-14T08:13:20;4.50;99.90
20489;DHT22;10403;54.092;12.122;2023-12-14T08:15:47;4.60;99.90
20489;DHT22;10403;54.092;12.122;2023-12-14T08:18:14;4.60;99.90
20489;DHT22;10403;54.092;12.122;2023-12-14T08:20:42;4.60;99.90
20489;DHT22;10403;54.092;12.122;2023-12-14T08:23:09;4.60;99.90
20489;DHT22;10403;54.092;12.122;2023-12-14T08:25:36;4.60;99.90
20489;DHT22;10403;54.092;12.122;2023-12-14T08:28:03;4.60;99.90
20489;DHT22;10403;54.092;12.122;2023-12-14T08:30:31;4.60;99.90
20489;DHT22;10403;54.092;12.122;2023-12-14T08:32:59;4.70;99.90
20489;DHT22;10403;54.092;12.122;2023-12-14T08:35:26;4.60;99.90
20489;DHT22;10403;54.092;12.122;2023-12-14T08:37:53;4.70;99.90
20489;DHT22;10403;54.092;12.122;2023-12-14T08:40:20;4.70;99.90
20489;DHT22;10403;54.092;12.122;2023-12-14T08:42:48;4.60;99.90
20489;DHT22;10403;54.092;12.122;2023-12-14T08:45:15;4.60;99.90
20489;DHT22;10403;54.092;12.122;2023-12-14T08:47:42;4.70;99.90
20489;DHT22;10403;54.092;12.122;2023-12-14T08:50:10;4.70;99.90
20489;DHT22;10403;54.092;12.122;2023-12-14T08:52:37;4.60;99.90
20489;DHT22;10403;54.092;12.122;2023-12-14T08:55:05;4.60;99.90
20489;DHT22;10403;54.092;12.122;2023-12-14T08:57:33;4.70;99.90
20489;DHT22;10403;54.092;12.122;2023-12-14T09:00:00;4.70;99.90
20489;DHT22;10403;54.092;12.122;2023-12-14T09:02:28;4.70;99.90
20489;DHT22;10403;54.092;12.122;2023-12-14T09:04:55;4.70;99.90
20489;DHT22;10403;54.092;12.122;2023-12-14T09:07:22;4.70;99.90
20489;DHT22;10403;54.092;12.122;2023-12-14T09:09:50;4.70;99.90
20489;DHT22;10403;54.092;12.122;2023-12-14T09:12:17;4.60;99.90
20489;DHT22;10403;54.092;12.122;2023-12-14T09:14:44;4.60;99.90
20489;DHT22;10403;54.092;12.122;2023-12-14T09:17:11;4.60;99.90
20489;DHT22;10403;54.092;12.122;2023-12-14T09:19:38;4.50;99.90
20489;DHT22;10403;54.092;12.122;2023-12-14T09:22:05;4.50;99.90
20489;DHT22;10403;54.092;12.122;2023-12-14T09:24:32;4.60;99.90
20489;DHT22;10403;54.092;12.122;2023-12-14T09:27:00;4.50;99.90
20489;DHT22;10403;54.092;12.122;2023-12-14T09:29:27;4.50;99.90
20489;DHT22;10403;54.092;12.122;2023-12-14T09:31:54;4.50;99.90
20489;DHT22;10403;54.092;12.122;2023-12-14T09:34:22;4.50;99.90
20489;DHT22;10403;54.092;12.122;2023-12-14T09:36:49;4.50;99.90
20489;DHT22;10403;54.092;12.122;2023-12-14T09:39:16;4.50;99.90
20489;DHT22;10403;54.092;12.122;2023-12-14T09:41:45;4.50;99.90
20489;DHT22;10403;54.092;12.122;2023-12-14T09:44:13;4.50;99.90
20489;DHT22;10403;54.092;12.122;2023-12-14T09:46:42;4.50;99.90
20489;DHT22;10403;54.092;12.122;2023-12-14T09:49:16;4.50;99.90
20489;DHT22;10403;54.092;12.122;2023-12-14T09:51:45;4.50;99.90
20489;DHT22;10403;54.092;12.122;2023-12-14T09:54:13;4.50;99.90
20489;DHT22;10403;54.092;12.122;2023-12-14T09:56:47;4.50;99.90
20489;DHT22;10403;54.092;12.122;2023-12-14T09:59:15;4.50;99.90
20489;DHT22;10403;54.092;12.122;2023-12-14T10:01:43;4.50;99.90
20489;DHT22;10403;54.092;12.122;2023-12-14T10:04:14;4.60;99.90
20489;DHT22;10403;54.092;12.122;2023-12-14T10:06:47;4.60;99.90
20489;DHT22;10403;54.092;12.122;2023-12-14T10:09:14;4.50;99.90
20489;DHT22;10403;54.092;12.122;2023-12-14T10:11:43;4.50;99.90
20489;DHT22;10403;54.092;12.122;2023-12-14T10:14:22;4.60;99.90
20489;DHT22;10403;54.092;12.122;2023-12-14T10:16:52;4.60;99.90
20489;DHT22;10403;54.092;12.122;2023-12-14T10:19:29;4.60;99.90
20489;DHT22;10403;54.092;12.122;2023-12-14T10:21:57;4.60;99.90
20489;DHT22;10403;54.092;12.122;2023-12-14T10:24:24;4.60;99.90
20489;DHT22;10403;54.092;12.122;2023-12-14T10:26:51;4.60;99.90
20489;DHT22;10403;54.092;12.122;2023-12-14T10:29:18;4.70;99.90
20489;DHT22;10403;54.092;12.122;2023-12-14T10:31:48;4.70;99.90
20489;DHT22;10403;54.092;12.122;2023-12-14T10:34:15;4.70;99.90
20489;DHT22;10403;54.092;12.122;2023-12-14T10:36:46;4.70;99.90
20489;DHT22;10403;54.092;12.122;2023-12-14T10:39:14;4.70;99.90
20489;DHT22;10403;54.092;12.122;2023-12-14T10:41:46;4.70;99.90
20489;DHT22;10403;54.092;12.122;2023-12-14T10:44:27;4.70;99.90
20489;DHT22;10403;54.092;12.122;2023-12-14T10:47:15;4.70;99.90
20489;DHT22;10403;54.092;12.122;2023-12-14T10:49:43;4.70;99.90
20489;DHT22;10403;54.092;12.122;2023-12-14T10:52:18;4.70;99.90
20489;DHT22;10403;54.092;12.122;2023-12-14T10:54:52;4.70;99.90
20489;DHT22;10403;54.092;12.122;2023-12-14T10:57:23;4.80;99.90
20489;DHT22;10403;54.092;12.122;2023-12-14T11:00:00;4.70;99.90
20489;DHT22;10403;54.092;12.122;2023-12-14T11:02:30;4.80;99.90
20489;DHT22;10403;54.092;12.122;2023-12-14T11:05:05;4.80;99.90
20489;DHT22;10403;54.092;12.122;2023-12-14T11:07:50;4.80;99.90
20489;DHT22;10403;54.092;12.122;2023-12-14T11:10:27;4.80;99.90
20489;DHT22;10403;54.092;12.122;2023-12-14T11:13:04;4.70;99.90
20489;DHT22;10403;54.092;12.122;2023-12-14T11:15:36;4.80;99.90
20489;DHT22;10403;54.092;12.122;2023-12-14T11:25:53;4.80;99.90
20489;DHT22;10403;54.092;12.122;2023-12-14T11:28:26;4.80;99.90
20489;DHT22;10403;54.092;12.122;2023-12-14T11:30:55;4.80;99.90
20489;DHT22;10403;54.092;12.122;2023-12-14T11:33:24;4.80;99.90
20489;DHT22;10403;54.092;12.122;2023-12-14T11:35:51;4.90;99.90
20489;DHT22;10403;54.092;12.122;2023-12-14T11:38:23;4.80;99.90
20489;DHT22;10403;54.092;12.122;2023-12-14T11:40:51;4.80;99.90
20489;DHT22;10403;54.092;12.122;2023-12-14T11:43:19;4.80;99.90
20489;DHT22;10403;54.092;12.122;2023-12-14T11:45:50;4.80;99.90
20489;DHT22;10403;54.092;12.122;2023-12-14T11:48:18;4.80;99.90
20489;DHT22;10403;54.092;12.122;2023-12-14T11:50:47;4.80;99.90
20489;DHT22;10403;54.092;12.122;2023-12-14T11:53:15;4.80;99.90
20489;DHT22;10403;54.092;12.122;2023-12-14T11:55:42;4.80;99.90
20489;DHT22;10403;54.092;12.122;2023-12-14T11:58:13;4.80;99.90
20489;DHT22;10403;54.092;12.122;2023-12-14T12:00:42;4.80;99.90
20489;DHT22;10403;54.092;12.122;2023-12-14T12:05:44;4.80;99.90
20489;DHT22;10403;54.092;12.122;2023-12-14T12:08:14;4.80;99.90
20489;DHT22;10403;54.092;12.122;2023-12-14T12:10:47;4.90;99.90
20489;DHT22;10403;54.092;12.122;2023-12-14T12:13:20;4.90;99.90
20489;DHT22;10403;54.092;12.122;2023-12-14T12:15:48;4.90;99.90
20489;DHT22;10403;54.092;12.122;2023-12-14T12:18:16;4.80;99.90
20489;DHT22;10403;54.092;12.122;2023-12-14T12:20:45;4.90;99.90
20489;DHT22;10403;54.092;12.122;2023-12-14T12:23:12;4.90;99.90
20489;DHT22;10403;54.092;12.122;2023-12-14T12:25:39;4.90;99.90
20489;DHT22;10403;54.092;12.122;2023-12-14T12:28:07;4.90;99.90
20489;DHT22;10403;54.092;12.122;2023-12-14T12:30:34;4.90;99.90
20489;DHT22;10403;54.092;12.122;2023-12-14T12:33:06;4.90;99.90
20489;DHT22;10403;54.092;12.122;2023-12-14T12:35:33;4.90;99.90
20489;DHT22;10403;54.092;12.122;2023-12-14T12:38:01;4.90;99.90
20489;DHT22;10403;54.092;12.122;2023-12-14T12:40:28;4.90;99.90
20489;DHT22;10403;54.092;12.122;2023-12-14T12:42:58;4.90;99.90
20489;DHT22;10403;54.092;12.122;2023-12-14T12:45:26;4.90;99.90
20489;DHT22;10403;54.092;12.122;2023-12-14T12:47:55;4.90;99.90
20489;DHT22;10403;54.092;12.122;2023-12-14T12:50:23;4.90;99.90
20489;DHT22;10403;54.092;12.122;2023-12-14T12:52:51;4.90;99.90
20489;DHT22;10403;54.092;12.122;2023-12-14T12:55:19;4.90;99.90
20489;DHT22;10403;54.092;12.122;2023-12-14T12:57:47;4.90;99.90
20489;DHT22;10403;54.092;12.122;2023-12-14T13:00:15;4.90;99.90
20489;DHT22;10403;54.092;12.122;2023-12-14T13:02:44;5.00;99.90
20489;DHT22;10403;54.092;12.122;2023-12-14T13:05:13;4.90;99.90
20489;DHT22;10403;54.092;12.122;2023-12-14T13:07:45;4.90;99.90
20489;DHT22;10403;54.092;12.122;2023-12-14T13:10:13;4.90;99.90
20489;DHT22;10403;54.092;12.122;2023-12-14T13:12:56;4.90;99.90
20489;DHT22;10403;54.092;12.122;2023-12-14T13:15:24;4.90;99.90
20489;DHT22;10403;54.092;12.122;2023-12-14T13:17:53;4.80;99.90
20489;DHT22;10403;54.092;12.122;2023-12-14T13:20:21;4.90;99.90
20489;DHT22;10403;54.092;12.122;2023-12-14T13:22:49;4.80;99.90
20489;DHT22;10403;54.092;12.122;2023-12-14T13:25:17;4.90;99.90
20489;DHT22;10403;54.092;12.122;2023-12-14T13:27:44;4.90;99.90
20489;DHT22;10403;54.092;12.122;2023-12-14T13:30:12;4.90;99.90
20489;DHT22;10403;54.092;12.122;2023-12-14T13:32:44;4.90;99.90
20489;DHT22;10403;54.092;12.122;2023-12-14T13:35:12;4.90;99.90
20489;DHT22;10403;54.092;12.122;2023-12-14T13:37:39;4.80;99.90
20489;DHT22;10403;54.092;12.122;2023-12-14T13:40:07;4.90;99.90
20489;DHT22;10403;54.092;12.122;2023-12-14T13:42:36;4.90;99.90
20489;DHT22;10403;54.092;12.122;2023-12-14T13:45:16;4.90;99.90
20489;DHT22;10403;54.092;12.122;2023-12-14T13:47:43;4.80;99.90
20489;DHT22;10403;54.092;12.122;2023-12-14T13:50:10;4.70;99.90
20489;DHT22;10403;54.092;12.122;2023-12-14T13:52:37;4.70;99.90
20489;DHT22;10403;54.092;12.122;2023-12-14T13:55:05;4.60;99.90
20489;DHT22;10403;54.092;12.122;2023-12-14T13:57:32;4.60;99.90
20489;DHT22;10403;54.092;12.122;2023-12-14T14:00:00;4.50;99.90
20489;DHT22;10403;54.092;12.122;2023-12-14T14:02:27;4.50;99.90
20489;DHT22;10403;54.092;12.122;2023-12-14T14:04:55;4.50;99.90
20489;DHT22;10403;54.092;12.122;2023-12-14T14:07:22;4.40;99.90
20489;DHT22;10403;54.092;12.122;2023-12-14T14:09:49;4.40;99.90
20489;DHT22;10403;54.092;12.122;2023-12-14T14:12:17;4.40;99.90
20489;DHT22;10403;54.092;12.122;2023-12-14T14:14:44;4.40;99.90
20489;DHT22;10403;54.092;12.122;2023-12-14T14:17:11;4.40;99.90
20489;DHT22;10403;54.092;12.122;2023-12-14T14:19:38;4.40;99.90
20489;DHT22;10403;54.092;12.122;2023-12-14T14:22:06;4.40;99.90
20489;DHT22;10403;54.092;12.122;2023-12-14T14:24:33;4.40;99.90
20489;DHT22;10403;54.092;12.122;2023-12-14T14:27:00;4.40;99.90
20489;DHT22;10403;54.092;12.122;2023-12-14T14:29:28;4.40;99.90
20489;DHT22;10403;54.092;12.122;2023-12-14T14:31:55;3.80;99.90
20489;DHT22;10403;54.092;12.122;2023-12-14T14:34:22;4.40;99.90
20489;DHT22;10403;54.092;12.122;2023-12-14T14:36:51;4.40;99.90
20489;DHT22;10403;54.092;12.122;2023-12-14T14:39:18;4.40;99.90
20489;DHT22;10403;54.092;12.122;2023-12-14T14:41:45;4.50;99.90
20489;DHT22;10403;54.092;12.122;2023-12-14T14:44:13;4.50;99.90
20489;DHT22;10403;54.092;12.122;2023-12-14T14:46:40;4.50;99.90
20489;DHT22;10403;54.092;12.122;2023-12-14T14:49:08;4.50;99.90
20489;DHT22;10403;54.092;12.122;2023-12-14T14:51:35;4.50;99.90
20489;DHT22;10403;54.092;12.122;2023-12-14T14:54:02;4.40;99.90
20489;DHT22;10403;54.092;12.122;2023-12-14T14:56:30;4.40;99.90
20489;DHT22;10403;54.092;12.122;2023-12-14T14:58:57;4.40;99.90
20489;DHT22;10403;54.092;12.122;2023-12-14T15:01:24;4.40;99.90
20489;DHT22;10403;54.092;12.122;2023-12-14T15:03:52;4.30;99.90
20489;DHT22;10403;54.092;12.122;2023-12-14T15:06:19;4.30;99.90
20489;DHT22;10403;54.092;12.122;2023-12-14T15:08:46;4.30;99.90
20489;DHT22;10403;54.092;12.122;2023-12-14T15:11:13;4.30;99.90
20489;DHT22;10403;54.092;12.122;2023-12-14T15:13:40;4.30;99.90
20489;DHT22;10403;54.092;12.122;2023-12-14T15:16:08;4.30;99.90
20489;DHT22;10403;54.092;12.122;2023-12-14T15:18:35;4.40;99.90
20489;DHT22;10403;54.092;12.122;2023-12-14T15:21:08;4.40;99.90
20489;DHT22;10403;54.092;12.122;2023-12-14T15:23:37;4.40;99.90
20489;DHT22;10403;54.092;12.122;2023-12-14T15:26:05;4.40;99.90
20489;DHT22;10403;54.092;12.122;2023-12-14T15:28:35;4.40;99.90
20489;DHT22;10403;54.092;12.122;2023-12-14T15:31:03;4.40;99.90
20489;DHT22;10403;54.092;12.122;2023-12-14T15:33:30;4.40;99.90
20489;DHT22;10403;54.092;12.122;2023-12-14T15:35:58;4.40;99.90
20489;DHT22;10403;54.092;12.122;2023-12-14T15:38:27;4.30;99.90
20489;DHT22;10403;54.092;12.122;2023-12-14T15:40:55;4.40;99.90
20489;DHT22;10403;54.092;12.122;2023-12-14T15:43:22;4.40;99.90
20489;DHT22;10403;54.092;12.122;2023-12-14T15:45:50;4.40;99.90